North Beach, Maryland
Current Conditions -  °F | °C
As of 12:54 AM on Thursday 23 Oct 2014 (Local Time) from KNAK Reporting Station
Overcast Overcast  
Wind Chill: 13°   Ceiling: 3600
Heat Index: 13°   Visibility: 10mi
Dew Point:   Wind: 13mph
Humidity: 69%   Direction: 300°WNW
Pressure: 29.86"   Gusts: 23mph
Location:  38.71°N, 76.53°W
Report Text: KNAK 230454Z AUTO 30011G20KT 10SM BKN036 OVC060 13/07 A2986 RMK AO2 SLP115 T01280072 401440128
Loading
Personal Weather Stations






























Interactive Weather Map
Tropical Storm Tracking
New forecast layout! Learn more

10-Day Weather Forecast

Advertisements
Track Severe Weather on mobile